Time;durP1;ratioP1;P1;durP2;ratioP2;P2;SDS_P1;SDS_P2;PMS_P1;PMS_P2;Temp;Humidity;BMP_temperature;BMP_pressure;BME280_temperature;BME280_humidity;BME280_pressure;Samples;Min_cycle;Max_cycle;Signal;HPM_P1;HPM_P2
2020/12/18 00:01:30;;;;;;;31.27;16.17;;;0.10;99.90;;;;;;5017613;28;20486;-81
2020/12/18 00:03:57;;;;;;;36.03;17.17;;;0.00;99.90;;;;;;5018695;28;20056;-81
2020/12/18 00:06:24;;;;;;;35.78;15.85;;;0.00;99.90;;;;;;5017686;28;20049;-81
2020/12/18 00:08:51;;;;;;;35.10;17.10;;;-0.10;99.90;;;;;;5018668;28;20056;-81
2020/12/18 00:11:24;;;;;;;29.77;15.50;;;-0.20;99.90;;;;;;5017342;28;20083;-81
2020/12/18 00:13:52;;;;;;;29.58;15.65;;;-0.20;99.90;;;;;;5016517;28;20085;-81
2020/12/18 00:16:20;;;;;;;26.48;13.75;;;-0.20;99.90;;;;;;5018865;28;20124;-81
2020/12/18 00:18:47;;;;;;;26.73;14.63;;;-0.30;99.90;;;;;;5017995;28;20068;-81
2020/12/18 00:21:21;;;;;;;29.13;15.60;;;-0.30;99.90;;;;;;5018159;28;20160;-81
2020/12/18 00:23:48;;;;;;;37.35;16.77;;;-0.30;99.90;;;;;;5018064;28;20061;-81
2020/12/18 00:26:15;;;;;;;41.17;19.50;;;-0.20;99.90;;;;;;5017746;28;20085;-82
2020/12/18 00:28:42;;;;;;;31.27;17.20;;;-0.20;99.90;;;;;;5016307;28;20089;-81
2020/12/18 00:31:08;;;;;;;37.55;17.83;;;-0.10;99.90;;;;;;5016231;28;20470;-81
2020/12/18 00:33:35;;;;;;;36.92;18.35;;;-0.10;99.90;;;;;;5017581;28;20076;-81
2020/12/18 00:36:02;;;;;;;39.67;18.70;;;-0.10;99.90;;;;;;5015799;28;20566;-81
2020/12/18 00:38:28;;;;;;;41.33;18.98;;;-0.10;99.90;;;;;;5015545;28;20050;-81
2020/12/18 00:40:54;;;;;;;34.15;17.63;;;-0.10;99.90;;;;;;5015880;28;20088;-82
2020/12/18 00:43:20;;;;;;;34.10;18.85;;;0.00;99.90;;;;;;5016172;28;20132;-81
2020/12/18 00:45:46;;;;;;;26.02;14.48;;;-0.10;99.90;;;;;;5017160;28;20395;-82
2020/12/18 00:48:13;;;;;;;39.33;16.67;;;-0.20;99.90;;;;;;5016419;28;20105;-82
2020/12/18 00:50:39;;;;;;;30.25;15.25;;;-0.30;99.90;;;;;;5017066;28;20061;-82
2020/12/18 00:53:05;;;;;;;25.45;14.68;;;-0.30;99.90;;;;;;5015442;28;20050;-81
2020/12/18 00:55:32;;;;;;;29.20;13.85;;;-0.40;99.90;;;;;;5015668;28;20416;-81
2020/12/18 00:57:58;;;;;;;25.05;13.55;;;-0.40;99.90;;;;;;5016639;28;20112;-81
2020/12/18 01:00:25;;;;;;;37.65;16.67;;;-0.50;99.90;;;;;;5016580;28;20093;-82
2020/12/18 01:02:51;;;;;;;28.15;15.60;;;-0.40;99.90;;;;;;5015741;28;20081;-82
2020/12/18 01:05:17;;;;;;;29.00;15.88;;;-0.40;99.90;;;;;;5017184;28;20136;-81
2020/12/18 01:07:43;;;;;;;32.08;15.57;;;-0.30;99.90;;;;;;5012895;28;20442;-81
2020/12/18 01:10:10;;;;;;;32.22;15.38;;;-0.30;99.90;;;;;;5013764;28;20105;-81
2020/12/18 01:12:36;;;;;;;32.22;15.05;;;-0.30;99.90;;;;;;5012507;28;20092;-81
2020/12/18 01:15:03;;;;;;;25.30;13.10;;;-0.40;99.90;;;;;;5013434;28;20498;-81
2020/12/18 01:17:29;;;;;;;25.90;13.35;;;-0.40;99.90;;;;;;5012602;28;20050;-81
2020/12/18 01:19:56;;;;;;;30.52;15.25;;;-0.50;99.90;;;;;;5012533;28;20129;-81
2020/12/18 01:22:23;;;;;;;38.30;16.75;;;-0.60;99.90;;;;;;5012279;28;20134;-81
2020/12/18 01:24:49;;;;;;;31.88;15.48;;;-0.60;99.90;;;;;;5012499;28;20145;-81
2020/12/18 01:27:16;;;;;;;42.92;16.65;;;-0.70;99.90;;;;;;5013622;28;20053;-81
2020/12/18 01:29:42;;;;;;;34.35;16.40;;;-0.80;99.90;;;;;;5012186;28;20049;-81
2020/12/18 01:32:09;;;;;;;27.45;14.20;;;-0.80;99.90;;;;;;5012254;28;20085;-81
2020/12/18 01:34:35;;;;;;;33.95;15.65;;;-0.80;99.90;;;;;;5012217;28;20086;-81
2020/12/18 01:37:01;;;;;;;27.50;14.70;;;-0.70;99.90;;;;;;5019451;28;20077;-82
2020/12/18 01:39:27;;;;;;;27.15;13.32;;;-0.70;99.90;;;;;;5018955;28;20099;-82
2020/12/18 01:41:53;;;;;;;25.77;12.70;;;-0.70;99.90;;;;;;5017440;28;20084;-82
2020/12/18 01:44:20;;;;;;;29.88;13.02;;;-0.70;99.90;;;;;;5018513;28;20068;-82
2020/12/18 01:46:47;;;;;;;20.85;12.40;;;-0.80;99.90;;;;;;5018447;28;20054;-82
2020/12/18 01:49:13;;;;;;;26.27;13.73;;;-0.80;99.90;;;;;;5016291;28;20140;-82
2020/12/18 01:51:48;;;;;;;21.35;12.65;;;-0.80;99.90;;;;;;5017804;28;20403;-82
2020/12/18 01:54:18;;;;;;;25.17;13.95;;;-0.80;99.90;;;;;;5017881;28;20061;-81
2020/12/18 01:56:45;;;;;;;30.10;15.15;;;-0.70;99.90;;;;;;5015387;28;20046;-82
2020/12/18 01:59:11;;;;;;;29.92;14.45;;;-0.70;99.90;;;;;;5015958;28;20088;-82
2020/12/18 02:01:39;;;;;;;28.95;14.50;;;-0.70;99.90;;;;;;5020936;28;20100;-82
2020/12/18 02:04:06;;;;;;;31.65;15.95;;;-0.70;99.90;;;;;;5018477;28;20046;-82
2020/12/18 02:06:35;;;;;;;28.88;15.13;;;-0.70;99.90;;;;;;5018562;28;20081;-82
2020/12/18 02:09:03;;;;;;;31.50;14.93;;;-0.70;99.90;;;;;;5019610;28;20073;-82
2020/12/18 02:11:29;;;;;;;30.13;15.52;;;-0.70;99.90;;;;;;5018047;28;20054;-82
2020/12/18 02:13:56;;;;;;;37.15;16.00;;;-0.70;99.90;;;;;;5017629;28;20454;-82
2020/12/18 02:16:22;;;;;;;31.58;15.05;;;-0.60;99.90;;;;;;5017334;28;20046;-81
2020/12/18 02:18:48;;;;;;;37.92;17.17;;;-0.60;99.90;;;;;;5018807;28;20060;-82
2020/12/18 02:21:15;;;;;;;49.05;18.65;;;-0.40;99.90;;;;;;5016771;28;20077;-81
2020/12/18 02:23:43;;;;;;;39.28;18.05;;;-0.50;99.90;;;;;;5018864;28;20084;-81
2020/12/18 02:26:11;;;;;;;31.15;16.20;;;-0.30;99.90;;;;;;5018413;28;20069;-81
2020/12/18 02:28:41;;;;;;;38.03;16.23;;;-0.30;99.90;;;;;;5016481;28;20525;-81
2020/12/18 02:31:09;;;;;;;33.88;15.98;;;-0.30;99.90;;;;;;5017567;28;20050;-81
2020/12/18 02:33:36;;;;;;;27.33;14.57;;;-0.30;99.90;;;;;;5018524;28;20145;-81
2020/12/18 02:36:05;;;;;;;29.98;15.68;;;-0.30;99.90;;;;;;5017939;28;20136;-81
2020/12/18 02:38:32;;;;;;;33.78;14.90;;;-0.40;99.90;;;;;;5017047;28;20077;-82
2020/12/18 02:40:58;;;;;;;31.20;14.10;;;-0.40;99.90;;;;;;5016532;28;20110;-81
2020/12/18 02:43:27;;;;;;;27.02;13.90;;;-0.30;99.90;;;;;;5016825;28;20050;-81
2020/12/18 02:45:53;;;;;;;31.02;15.70;;;-0.40;99.90;;;;;;5017559;28;20054;-81
2020/12/18 02:48:19;;;;;;;33.40;15.68;;;-0.40;99.90;;;;;;5016516;28;20081;-81
2020/12/18 02:50:49;;;;;;;26.27;14.13;;;-0.30;99.90;;;;;;5015607;28;20058;-81
2020/12/18 02:53:21;;;;;;;29.33;14.32;;;-0.40;99.90;;;;;;5015403;28;20084;-81
2020/12/18 02:55:48;;;;;;;30.83;14.13;;;-0.40;99.90;;;;;;5015524;28;20514;-81
2020/12/18 02:58:15;;;;;;;33.17;14.60;;;-0.40;99.90;;;;;;5015945;28;20046;-81
2020/12/18 03:00:41;;;;;;;29.15;14.18;;;-0.40;99.90;;;;;;5015900;28;20057;-81
2020/12/18 03:03:08;;;;;;;34.72;14.20;;;-0.40;99.90;;;;;;5016346;28;20108;-81
2020/12/18 03:05:35;;;;;;;26.55;13.48;;;-0.50;99.90;;;;;;5017036;28;20085;-81
2020/12/18 03:08:02;;;;;;;30.42;14.30;;;-0.60;99.90;;;;;;5016395;28;20141;-82
2020/12/18 03:10:28;;;;;;;38.55;14.55;;;-0.60;99.90;;;;;;5016296;28;20582;-81
2020/12/18 03:12:54;;;;;;;24.38;12.35;;;-0.60;99.90;;;;;;5014520;28;20057;-81
2020/12/18 03:15:21;;;;;;;35.63;14.75;;;-0.70;99.90;;;;;;5015686;28;20118;-81
2020/12/18 03:17:47;;;;;;;32.75;14.27;;;-0.70;99.90;;;;;;5015227;28;20132;-81
2020/12/18 03:20:14;;;;;;;37.10;14.65;;;-0.80;99.90;;;;;;5016610;28;20049;-81
2020/12/18 03:22:46;;;;;;;25.73;12.70;;;-0.80;99.90;;;;;;5015066;28;20084;-81
2020/12/18 03:25:12;;;;;;;30.30;14.27;;;-0.80;99.90;;;;;;5019344;28;20086;-82
2020/12/18 03:27:43;;;;;;;31.33;13.57;;;-0.80;99.90;;;;;;5021256;28;20064;-82
2020/12/18 03:30:09;;;;;;;28.85;14.05;;;-0.80;99.90;;;;;;5020299;28;20104;-82
2020/12/18 03:32:35;;;;;;;29.50;13.70;;;-0.90;99.90;;;;;;5021258;28;20080;-82
2020/12/18 03:35:05;;;;;;;33.25;14.75;;;-0.80;99.90;;;;;;5020001;28;20082;-82
2020/12/18 03:37:31;;;;;;;29.15;13.45;;;-0.80;99.90;;;;;;5020697;28;20046;-82
2020/12/18 03:39:58;;;;;;;36.55;14.73;;;-0.80;99.90;;;;;;5019647;28;20046;-82
2020/12/18 03:42:24;;;;;;;27.05;12.90;;;-0.80;99.90;;;;;;5017960;28;20050;-82
2020/12/18 03:44:50;;;;;;;25.23;12.57;;;-0.80;99.90;;;;;;5018023;28;20089;-81
2020/12/18 03:47:16;;;;;;;24.05;12.48;;;-0.80;99.90;;;;;;5018930;28;20132;-81
2020/12/18 03:49:44;;;;;;;26.55;13.82;;;-0.80;99.90;;;;;;5018554;28;20052;-82
2020/12/18 03:52:10;;;;;;;24.35;13.57;;;-0.90;99.90;;;;;;5018781;28;20201;-81
2020/12/18 03:54:36;;;;;;;26.77;13.63;;;-0.80;99.90;;;;;;5017823;28;20081;-81
2020/12/18 03:57:02;;;;;;;29.17;14.57;;;-0.80;99.90;;;;;;5016370;28;20480;-81
2020/12/18 03:59:28;;;;;;;28.80;14.98;;;-0.70;99.90;;;;;;5016392;28;20077;-81
2020/12/18 04:01:55;;;;;;;36.88;15.90;;;-0.60;99.90;;;;;;5015365;28;20104;-81
2020/12/18 04:04:22;;;;;;;43.78;17.58;;;-0.60;99.90;;;;;;5016377;28;20106;-81
2020/12/18 04:06:49;;;;;;;40.40;16.92;;;-0.50;99.90;;;;;;5016838;28;20502;-81
2020/12/18 04:09:15;;;;;;;42.90;17.23;;;-0.30;99.90;;;;;;5016949;28;20136;-82
2020/12/18 04:11:42;;;;;;;32.58;16.73;;;-0.20;99.90;;;;;;5015435;28;20108;-82
2020/12/18 04:14:08;;;;;;;37.58;17.45;;;-0.10;99.90;;;;;;5014889;28;20050;-82
2020/12/18 04:16:34;;;;;;;43.55;19.33;;;0.00;99.90;;;;;;5014680;28;20145;-81
2020/12/18 04:19:01;;;;;;;38.55;17.42;;;-0.10;99.90;;;;;;5016218;28;20553;-81
2020/12/18 04:21:27;;;;;;;46.63;18.02;;;0.00;99.90;;;;;;5015766;28;20506;-81
2020/12/18 04:23:53;;;;;;;46.38;18.55;;;-0.10;99.90;;;;;;5014617;28;20140;-81
2020/12/18 04:26:20;;;;;;;33.28;16.10;;;-0.10;99.90;;;;;;5014102;28;20089;-81
2020/12/18 04:28:46;;;;;;;32.67;16.33;;;0.00;99.90;;;;;;5013866;28;20052;-81
2020/12/18 04:31:12;;;;;;;32.92;15.40;;;0.00;99.90;;;;;;5013885;28;20491;-81
2020/12/18 04:33:38;;;;;;;33.47;14.73;;;0.00;99.90;;;;;;5013969;28;20052;-81
2020/12/18 04:36:05;;;;;;;24.60;12.98;;;-0.10;99.90;;;;;;5013328;28;20133;-81
2020/12/18 04:38:31;;;;;;;29.30;12.60;;;-0.20;99.90;;;;;;5013625;28;20081;-81
2020/12/18 04:40:57;;;;;;;26.33;12.52;;;-0.30;99.90;;;;;;5014563;28;20121;-81
2020/12/18 04:43:24;;;;;;;22.85;12.23;;;-0.40;99.90;;;;;;5012459;28;20085;-82
2020/12/18 04:45:55;;;;;;;23.38;11.88;;;-0.50;99.90;;;;;;5013119;28;20133;-81
2020/12/18 04:48:25;;;;;;;31.80;13.23;;;-0.60;99.90;;;;;;5014615;28;20060;-82
2020/12/18 04:50:55;;;;;;;28.20;11.82;;;-0.80;99.90;;;;;;5012957;28;20057;-81
2020/12/18 04:53:38;;;;;;;19.65;11.25;;;-0.90;99.90;;;;;;5014652;28;20054;-82
2020/12/18 04:56:11;;;;;;;22.50;11.90;;;-0.90;99.90;;;;;;5014068;28;20546;-81
2020/12/18 04:58:38;;;;;;;30.33;13.55;;;-0.90;99.90;;;;;;5012974;28;20109;-82
2020/12/18 05:01:06;;;;;;;28.35;14.00;;;-0.90;99.90;;;;;;5014894;28;20104;-82
2020/12/18 05:03:35;;;;;;;29.10;14.05;;;-0.90;99.90;;;;;;5013238;28;20049;-81
2020/12/18 05:06:04;;;;;;;32.83;17.17;;;-0.90;99.90;;;;;;5013174;28;20053;-81
2020/12/18 05:08:31;;;;;;;35.72;17.15;;;-0.80;99.90;;;;;;5014797;28;20089;-83
2020/12/18 05:10:58;;;;;;;38.72;16.85;;;-0.80;99.90;;;;;;5014201;28;20054;-81
2020/12/18 05:13:24;;;;;;;32.17;15.65;;;-0.80;99.90;;;;;;5017355;28;20566;-82
2020/12/18 05:15:52;;;;;;;45.83;20.05;;;-0.80;99.90;;;;;;5018366;28;20100;-83
2020/12/18 05:18:21;;;;;;;68.00;32.25;;;-0.70;99.90;;;;;;5019139;28;20045;-82
2020/12/18 05:20:48;;;;;;;78.35;38.83;;;-0.70;99.90;;;;;;5017326;28;20054;-82
2020/12/18 05:23:14;;;;;;;46.10;20.98;;;-0.60;99.90;;;;;;5018102;28;20138;-82
2020/12/18 05:25:41;;;;;;;37.88;18.40;;;-0.40;99.90;;;;;;5016259;28;20277;-82
2020/12/18 05:28:17;;;;;;;42.60;18.88;;;-0.30;99.90;;;;;;5016331;28;20132;-82
2020/12/18 05:30:46;;;;;;;40.65;17.08;;;-0.20;99.90;;;;;;5016200;28;20050;-82
2020/12/18 05:33:13;;;;;;;55.53;20.35;;;-0.20;99.90;;;;;;5015129;28;20081;-81
2020/12/18 05:35:40;;;;;;;45.60;17.38;;;-0.30;99.90;;;;;;5015097;28;20050;-82
2020/12/18 05:38:07;;;;;;;35.70;16.25;;;-0.40;99.90;;;;;;5015468;28;20100;-82
2020/12/18 05:40:33;;;;;;;41.38;22.45;;;-0.40;99.90;;;;;;5014558;28;20133;-81
2020/12/18 05:43:06;;;;;;;41.78;18.60;;;-0.40;99.90;;;;;;5014486;28;20483;-81
2020/12/18 05:45:32;;;;;;;33.92;17.30;;;-0.40;99.90;;;;;;5014984;28;20462;-81
2020/12/18 05:48:00;;;;;;;32.95;14.25;;;-0.40;99.90;;;;;;5015183;28;20069;-82
2020/12/18 05:50:32;;;;;;;29.65;14.38;;;-0.50;99.90;;;;;;5016748;28;20112;-82
2020/12/18 05:53:00;;;;;;;28.73;14.45;;;-0.60;99.90;;;;;;5014853;28;20081;-82
2020/12/18 05:55:28;;;;;;;28.55;13.70;;;-0.60;99.90;;;;;;5015963;28;20046;-82
2020/12/18 05:57:54;;;;;;;23.20;13.57;;;-0.60;99.90;;;;;;5015036;28;20555;-82
2020/12/18 06:00:24;;;;;;;29.75;13.85;;;-0.60;99.90;;;;;;5014628;28;20120;-81
2020/12/18 06:03:00;;;;;;;47.28;16.23;;;-0.60;99.90;;;;;;5016015;28;20515;-81
2020/12/18 06:05:26;;;;;;;27.83;14.13;;;-0.70;99.90;;;;;;5014436;28;20074;-82
2020/12/18 06:07:53;;;;;;;35.30;16.63;;;-0.70;99.90;;;;;;5014129;28;20050;-82
2020/12/18 06:10:25;;;;;;;34.38;16.55;;;-0.60;99.90;;;;;;5014362;28;20084;-82
2020/12/18 06:13:02;;;;;;;33.28;16.63;;;-0.60;99.90;;;;;;5013612;28;20088;-81
2020/12/18 06:15:28;;;;;;;35.40;16.92;;;-0.50;99.90;;;;;;5014102;28;20053;-82
2020/12/18 06:18:00;;;;;;;49.85;22.52;;;-0.50;99.90;;;;;;5014965;28;20572;-82
2020/12/18 06:20:34;;;;;;;61.75;28.02;;;-0.40;99.90;;;;;;5012830;28;20746;-81
2020/12/18 06:23:05;;;;;;;52.30;25.95;;;-0.50;99.90;;;;;;5013732;28;20477;-81
2020/12/18 06:25:32;;;;;;;53.92;20.95;;;-0.50;99.90;;;;;;5013590;28;20046;-81
2020/12/18 06:28:00;;;;;;;37.30;17.65;;;-0.50;99.90;;;;;;5014019;28;20081;-81
2020/12/18 06:30:28;;;;;;;32.22;15.05;;;-0.50;99.90;;;;;;5014410;28;20046;-82
2020/12/18 06:32:55;;;;;;;42.38;17.15;;;-0.50;99.90;;;;;;5013085;28;20054;-81
2020/12/18 06:35:33;;;;;;;34.03;15.05;;;-0.60;99.90;;;;;;5013682;28;20491;-81
2020/12/18 06:38:15;;;;;;;40.88;14.45;;;-0.60;99.90;;;;;;5014238;28;20130;-82
2020/12/18 06:40:42;;;;;;;32.03;14.73;;;-0.60;99.90;;;;;;5013141;28;20046;-81
2020/12/18 06:43:09;;;;;;;37.78;14.30;;;-0.70;99.90;;;;;;5012953;28;20082;-82
2020/12/18 06:45:36;;;;;;;33.38;15.57;;;-0.70;99.90;;;;;;5012817;28;20470;-82
2020/12/18 06:48:24;;;;;;;36.10;14.68;;;-0.80;99.90;;;;;;5015904;28;20107;-81
2020/12/18 06:50:51;;;;;;;39.80;15.70;;;-0.70;99.90;;;;;;5016305;28;20080;-81
2020/12/18 06:53:17;;;;;;;40.30;17.13;;;-0.70;99.90;;;;;;5016645;28;20133;-81
2020/12/18 06:55:43;;;;;;;40.78;17.80;;;-0.60;99.90;;;;;;5016430;28;20474;-81
2020/12/18 06:58:17;;;;;;;41.28;18.33;;;-0.50;99.90;;;;;;5016642;28;20142;-81
2020/12/18 07:00:57;;;;;;;47.15;19.05;;;-0.40;99.90;;;;;;5016185;28;20050;-82
2020/12/18 07:03:38;;;;;;;36.33;19.30;;;-0.30;99.90;;;;;;5016656;28;20096;-82
2020/12/18 07:06:06;;;;;;;39.50;17.98;;;-0.20;99.90;;;;;;5021492;28;20077;-83
2020/12/18 07:08:35;;;;;;;36.13;18.23;;;-0.20;99.90;;;;;;5019629;28;20129;-82
2020/12/18 07:11:10;;;;;;;32.75;16.67;;;-0.20;99.90;;;;;;5020459;28;20045;-82
2020/12/18 07:13:39;;;;;;;38.50;18.52;;;-0.20;99.90;;;;;;5019479;28;20546;-82
2020/12/18 07:16:08;;;;;;;35.83;18.15;;;-0.20;99.90;;;;;;5020786;28;20093;-82
2020/12/18 07:18:43;;;;;;;38.80;18.35;;;-0.20;99.90;;;;;;5020304;28;20530;-82
2020/12/18 07:21:10;;;;;;;39.55;19.52;;;-0.10;99.90;;;;;;5019534;28;20180;-81
2020/12/18 07:23:41;;;;;;;51.83;21.58;;;-0.10;99.90;;;;;;5018758;28;20569;-81
2020/12/18 07:28:43;;;;;;;50.95;21.00;;;-0.20;99.90;;;;;;5032834;28;20564;-80
2020/12/18 07:31:27;;;;;;;53.55;21.10;;;-0.20;99.90;;;;;;5034613;28;20125;-79
2020/12/18 07:33:56;;;;;;;65.32;25.40;;;0.00;99.90;;;;;;5035229;28;20076;-80
2020/12/18 07:36:24;;;;;;;72.85;29.98;;;0.20;99.90;;;;;;5035694;28;20463;-81
2020/12/18 07:38:51;;;;;;;69.10;29.60;;;0.30;99.90;;;;;;5017163;28;20046;-79
2020/12/18 07:41:17;;;;;;;85.82;31.80;;;0.30;99.90;;;;;;5034849;28;20576;-79
2020/12/18 07:43:45;;;;;;;58.38;28.30;;;0.40;99.90;;;;;;5018095;28;20136;-80
2020/12/18 07:46:16;;;;;;;76.95;31.42;;;0.60;99.90;;;;;;5034160;28;20054;-81
2020/12/18 07:48:44;;;;;;;50.78;25.75;;;0.70;99.90;;;;;;5018065;28;20053;-81
2020/12/18 07:51:16;;;;;;;82.70;33.40;;;0.80;99.90;;;;;;5035374;28;20144;-80
2020/12/18 07:53:43;;;;;;;76.57;31.63;;;0.90;99.90;;;;;;5035192;28;20096;-79
2020/12/18 07:56:14;;;;;;;71.30;30.58;;;1.00;99.90;;;;;;5035037;28;20148;-80
2020/12/18 07:58:49;;;;;;;115.28;41.97;;;1.10;99.90;;;;;;5017139;28;20049;-80
2020/12/18 08:01:22;;;;;;;118.70;47.15;;;1.30;99.90;;;;;;5034873;28;20155;-80
2020/12/18 08:03:57;;;;;;;89.40;39.00;;;1.40;99.90;;;;;;5017302;28;20129;-80
2020/12/18 08:06:28;;;;;;;80.00;32.58;;;1.40;99.90;;;;;;5034712;28;20072;-80
2020/12/18 08:09:05;;;;;;;58.80;26.17;;;1.50;99.90;;;;;;5035151;28;20545;-79
2020/12/18 08:11:33;;;;;;;54.50;24.25;;;1.50;99.90;;;;;;5017381;28;20136;-80
2020/12/18 08:14:01;;;;;;;61.22;24.75;;;1.60;99.90;;;;;;5034906;28;20059;-80
2020/12/18 08:16:30;;;;;;;43.25;21.35;;;1.70;99.90;;;;;;5034926;28;20486;-80
2020/12/18 08:18:58;;;;;;;44.20;22.50;;;1.70;99.90;;;;;;5034634;28;20053;-81
2020/12/18 08:21:33;;;;;;;41.83;22.40;;;1.90;99.90;;;;;;5035250;28;20064;-80
2020/12/18 08:24:09;;;;;;;41.50;22.02;;;1.90;99.90;;;;;;5017326;28;20123;-80
2020/12/18 08:26:41;;;;;;;43.33;20.48;;;2.00;99.90;;;;;;5034401;28;20056;-79
2020/12/18 08:29:08;;;;;;;36.80;19.42;;;2.00;99.90;;;;;;5034800;28;20096;-80
2020/12/18 08:31:39;;;;;;;43.10;20.33;;;2.00;99.90;;;;;;5017114;28;20108;-80
2020/12/18 08:34:08;;;;;;;35.50;19.50;;;2.10;99.90;;;;;;5017019;28;20143;-79
2020/12/18 08:36:46;;;;;;;35.83;19.10;;;2.10;99.90;;;;;;5016935;28;20081;-80
2020/12/18 08:39:14;;;;;;;41.97;19.77;;;2.20;99.90;;;;;;5017342;28;20477;-80
2020/12/18 08:41:48;;;;;;;36.60;18.77;;;2.20;99.90;;;;;;5016732;28;20092;-80
2020/12/18 08:44:17;;;;;;;48.22;23.38;;;2.30;99.90;;;;;;5034792;28;20449;-81
2020/12/18 08:46:45;;;;;;;38.35;22.75;;;2.30;99.90;;;;;;5034881;28;20476;-81
2020/12/18 08:49:20;;;;;;;38.38;21.95;;;2.40;99.90;;;;;;5017003;28;20053;-81
2020/12/18 08:51:49;;;;;;;40.35;21.63;;;2.50;99.90;;;;;;5016954;28;20137;-80
2020/12/18 08:54:20;;;;;;;36.30;19.77;;;2.50;99.90;;;;;;5016569;28;20081;-80
2020/12/18 08:56:47;;;;;;;44.42;23.83;;;2.50;99.90;;;;;;5016975;28;20136;-80
2020/12/18 08:59:16;;;;;;;37.55;21.80;;;2.70;99.90;;;;;;5016636;28;20053;-81
2020/12/18 09:01:50;;;;;;;34.13;19.00;;;2.80;99.90;;;;;;5016757;28;20050;-79
2020/12/18 09:04:17;;;;;;;40.38;21.83;;;2.80;99.90;;;;;;5017068;28;20577;-81
2020/12/18 09:06:51;;;;;;;33.03;19.08;;;2.90;99.90;;;;;;5034482;28;20139;-80
2020/12/18 09:09:18;;;;;;;31.20;18.77;;;3.00;99.90;;;;;;5033336;28;20625;-80
2020/12/18 09:11:47;;;;;;;30.70;18.50;;;3.00;99.90;;;;;;5016965;28;20133;-80
2020/12/18 09:14:29;;;;;;;29.65;18.48;;;3.10;99.90;;;;;;5034601;28;20132;-81
2020/12/18 09:16:59;;;;;;;36.90;21.00;;;3.20;99.90;;;;;;5033934;28;20076;-80
2020/12/18 09:19:25;;;;;;;34.95;20.17;;;3.30;99.90;;;;;;5016406;28;20045;-79
2020/12/18 09:22:05;;;;;;;50.17;26.58;;;3.30;99.90;;;;;;5015858;28;20091;-81
2020/12/18 09:24:31;;;;;;;58.78;30.98;;;3.40;99.90;;;;;;5034541;28;20049;-81
2020/12/18 09:27:11;;;;;;;41.05;23.15;;;3.50;99.90;;;;;;5015807;28;20092;-81
2020/12/18 09:29:38;;;;;;;55.83;26.33;;;3.40;99.90;;;;;;5033840;28;20045;-81
2020/12/18 09:32:05;;;;;;;54.17;26.60;;;3.50;99.90;;;;;;5015619;28;20425;-81
2020/12/18 09:34:32;;;;;;;43.60;25.27;;;3.70;99.90;;;;;;5034071;28;20096;-81
2020/12/18 09:37:11;;;;;;;51.47;29.45;;;3.80;99.90;;;;;;5033119;28;20148;-81
2020/12/18 09:39:37;;;;;;;71.28;37.17;;;3.90;99.90;;;;;;5016086;28;20128;-82
2020/12/18 09:42:03;;;;;;;42.35;22.80;;;4.00;99.90;;;;;;5033789;28;20091;-80
2020/12/18 09:44:30;;;;;;;37.13;22.17;;;3.80;99.90;;;;;;5016201;28;20077;-80
2020/12/18 09:46:56;;;;;;;39.00;20.52;;;3.80;99.90;;;;;;5015949;28;20092;-80
2020/12/18 09:49:22;;;;;;;45.70;23.75;;;3.60;99.90;;;;;;5016408;28;20133;-81
2020/12/18 09:51:48;;;;;;;37.15;21.42;;;3.60;99.90;;;;;;5016113;28;20073;-80
2020/12/18 09:54:15;;;;;;;47.60;23.52;;;3.60;99.90;;;;;;5033595;28;20050;-80
2020/12/18 09:56:41;;;;;;;45.50;22.52;;;3.40;99.90;;;;;;5015810;28;20052;-81
2020/12/18 09:59:07;;;;;;;44.53;23.52;;;3.40;99.90;;;;;;5015840;28;20129;-81
2020/12/18 10:01:33;;;;;;;31.00;19.35;;;3.50;99.90;;;;;;5016505;28;20148;-81
2020/12/18 10:04:00;;;;;;;41.88;19.90;;;3.50;99.90;;;;;;5015697;28;20132;-81
2020/12/18 10:06:27;;;;;;;38.08;20.73;;;3.50;99.90;;;;;;5033200;28;20088;-81
2020/12/18 10:08:53;;;;;;;42.83;22.30;;;3.40;99.90;;;;;;5016237;28;20051;-81
2020/12/18 10:11:25;;;;;;;50.53;30.23;;;3.20;99.90;;;;;;5033384;28;20088;-81
2020/12/18 10:13:52;;;;;;;55.58;30.20;;;3.10;99.90;;;;;;5015309;28;20141;-80
2020/12/18 10:16:18;;;;;;;50.90;27.98;;;3.10;99.90;;;;;;5015978;28;20132;-81
2020/12/18 10:18:44;;;;;;;64.38;36.58;;;3.20;99.90;;;;;;5033367;28;20092;-80
2020/12/18 10:21:10;;;;;;;46.72;25.27;;;3.10;99.90;;;;;;5017346;28;20085;-79
2020/12/18 10:23:36;;;;;;;45.70;24.58;;;3.20;99.90;;;;;;5037173;28;20069;-80
2020/12/18 10:26:03;;;;;;;46.83;27.02;;;3.20;99.90;;;;;;5019891;28;20490;-81
2020/12/18 10:28:29;;;;;;;58.33;25.55;;;3.30;99.90;;;;;;5019605;28;20061;-79
2020/12/18 10:30:55;;;;;;;41.83;22.83;;;3.30;99.90;;;;;;5019798;28;20501;-80
2020/12/18 10:33:22;;;;;;;69.00;33.75;;;3.40;99.90;;;;;;5037226;28;20077;-81
2020/12/18 10:35:48;;;;;;;87.95;36.95;;;3.40;99.90;;;;;;5037077;28;20045;-81
2020/12/18 10:38:14;;;;;;;28.58;16.40;;;3.60;99.90;;;;;;5019740;28;20133;-80
2020/12/18 10:40:41;;;;;;;97.35;37.97;;;3.80;99.90;;;;;;5019182;28;20049;-81
2020/12/18 10:43:12;;;;;;;42.20;21.23;;;3.90;99.90;;;;;;5019642;28;20561;-79
2020/12/18 10:45:39;;;;;;;22.42;13.90;;;3.90;99.90;;;;;;5019862;28;20476;-81
2020/12/18 10:48:05;;;;;;;18.38;11.65;;;4.20;99.90;;;;;;5019522;28;20153;-81
2020/12/18 10:50:31;;;;;;;20.65;12.23;;;4.40;99.90;;;;;;5019400;28;20263;-80
2020/12/18 10:53:00;;;;;;;21.42;11.63;;;4.70;99.90;;;;;;5019254;28;20053;-80
2020/12/18 10:55:26;;;;;;;28.73;10.75;;;4.90;99.90;;;;;;5018732;28;20077;-80
2020/12/18 10:57:52;;;;;;;35.47;19.95;;;5.10;99.90;;;;;;5036091;28;20140;-81
2020/12/18 11:00:19;;;;;;;20.23;9.35;;;5.30;99.90;;;;;;5018814;28;20077;-81
2020/12/18 11:02:45;;;;;;;18.25;9.90;;;5.50;99.90;;;;;;5037007;28;20084;-81
2020/12/18 11:05:12;;;;;;;32.22;20.38;;;5.40;99.90;;;;;;5037312;28;20076;-81
2020/12/18 11:07:38;;;;;;;21.10;14.38;;;5.30;99.90;;;;;;5019483;28;20569;-80
2020/12/18 11:10:04;;;;;;;23.52;12.98;;;5.30;99.90;;;;;;5018987;28;20108;-81
2020/12/18 11:12:30;;;;;;;41.80;12.63;;;5.40;99.90;;;;;;5037017;28;20053;-81
2020/12/18 11:14:57;;;;;;;54.63;13.13;;;5.50;99.90;;;;;;5036420;28;20069;-80
2020/12/18 11:17:23;;;;;;;20.20;13.65;;;5.60;99.90;;;;;;5037016;28;20045;-82
2020/12/18 11:19:49;;;;;;;20.55;14.18;;;5.70;99.90;;;;;;5036420;28;20045;-81
2020/12/18 11:22:16;;;;;;;17.77;12.43;;;5.90;99.90;;;;;;5036495;28;20091;-79
2020/12/18 11:24:43;;;;;;;12.70;8.65;;;6.10;99.90;;;;;;5018741;28;20100;-81
2020/12/18 11:27:22;;;;;;;13.90;9.57;;;6.00;99.90;;;;;;5030832;28;20485;-81
2020/12/18 11:29:48;;;;;;;13.07;8.50;;;5.90;99.90;;;;;;5014962;28;20141;-80
2020/12/18 11:32:17;;;;;;;11.38;7.07;;;6.00;99.90;;;;;;5015819;28;20141;-80
2020/12/18 11:34:43;;;;;;;8.32;7.53;;;6.00;99.90;;;;;;5015049;28;20053;-80
2020/12/18 11:37:09;;;;;;;9.48;7.88;;;5.90;99.90;;;;;;5015781;28;20077;-81
2020/12/18 11:39:36;;;;;;;10.68;7.93;;;6.00;99.90;;;;;;5014658;28;20133;-80
2020/12/18 11:42:02;;;;;;;9.95;5.97;;;6.70;99.90;;;;;;5016175;28;20132;-81
2020/12/18 11:44:29;;;;;;;11.45;8.23;;;7.20;99.90;;;;;;5015010;28;20052;-80
2020/12/18 11:46:55;;;;;;;7.88;4.70;;;6.90;99.90;;;;;;5016170;28;20109;-80
2020/12/18 11:49:21;;;;;;;6.28;4.65;;;6.80;99.90;;;;;;5015058;28;20136;-80
2020/12/18 11:51:47;;;;;;;8.55;5.75;;;6.30;99.90;;;;;;5014644;28;20077;-80
2020/12/18 11:54:13;;;;;;;9.38;5.47;;;6.30;99.90;;;;;;5014888;28;20054;-80
2020/12/18 11:56:40;;;;;;;9.38;5.22;;;6.10;99.90;;;;;;5014991;28;20069;-80
2020/12/18 11:59:06;;;;;;;7.75;5.53;;;6.00;99.90;;;;;;5015642;28;20215;-80
2020/12/18 12:01:32;;;;;;;5.57;4.13;;;6.20;99.90;;;;;;5016897;28;20081;-81
2020/12/18 12:03:58;;;;;;;7.43;4.40;;;6.10;99.90;;;;;;5015953;28;20101;-80
2020/12/18 12:06:25;;;;;;;3.55;3.30;;;5.90;99.90;;;;;;5014320;28;20053;-81
2020/12/18 12:08:51;;;;;;;5.30;3.70;;;5.80;99.90;;;;;;5014297;28;20128;-80
2020/12/18 12:11:18;;;;;;;29.70;24.95;;;5.80;99.90;;;;;;5013150;28;20112;-80
2020/12/18 12:13:45;;;;;;;16.25;9.27;;;5.50;99.90;;;;;;5014653;28;20050;-80
2020/12/18 12:16:13;;;;;;;10.73;6.38;;;5.60;99.90;;;;;;5014180;28;20049;-80
2020/12/18 12:18:41;;;;;;;7.57;4.45;;;5.40;99.90;;;;;;5015279;28;20473;-81
2020/12/18 12:21:07;;;;;;;23.10;12.52;;;5.30;99.90;;;;;;5015510;28;20076;-80
2020/12/18 12:23:33;;;;;;;23.70;10.18;;;5.30;99.90;;;;;;5013946;28;20049;-81
2020/12/18 12:26:00;;;;;;;71.88;28.77;;;5.20;99.90;;;;;;5013973;28;20053;-80
2020/12/18 12:28:26;;;;;;;143.32;47.80;;;5.20;99.90;;;;;;5033012;28;20127;-80
2020/12/18 12:30:52;;;;;;;389.67;120.63;;;5.10;99.90;;;;;;5017143;28;20145;-81
2020/12/18 12:33:19;;;;;;;489.60;146.65;;;5.10;99.90;;;;;;5017147;28;20109;-80
2020/12/18 12:35:45;;;;;;;162.15;49.58;;;5.10;99.90;;;;;;5034856;28;20167;-81
2020/12/18 12:38:12;;;;;;;319.20;103.10;;;5.00;99.90;;;;;;5035152;28;20133;-81
2020/12/18 12:40:39;;;;;;;255.65;84.07;;;4.90;99.90;;;;;;5034672;28;20052;-80